createdAt,value
2018-12-05T00:00:09.887Z,1020.55
2018-12-05T00:01:09.863Z,1020.55
2018-12-05T00:02:09.836Z,1020.53
2018-12-05T00:03:09.814Z,1020.53
2018-12-05T00:04:09.788Z,1020.54
2018-12-05T00:05:09.768Z,1020.54
2018-12-05T00:06:09.746Z,1020.54
2018-12-05T00:07:09.712Z,1020.57
2018-12-05T00:08:09.688Z,1020.52
2018-12-05T00:09:09.662Z,1020.54
2018-12-05T00:10:09.637Z,1020.48
2018-12-05T00:11:09.613Z,1020.48
2018-12-05T00:12:09.588Z,1020.48
2018-12-05T00:13:09.562Z,1020.47
2018-12-05T00:14:09.537Z,1020.48
2018-12-05T00:15:09.511Z,1020.48
2018-12-05T00:16:09.488Z,1020.51
2018-12-05T00:17:09.526Z,1020.58
2018-12-05T00:18:09.442Z,1020.57
2018-12-05T00:19:09.425Z,1020.57
2018-12-05T00:20:09.388Z,1020.56
2018-12-05T00:21:09.362Z,1020.57
2018-12-05T00:22:09.339Z,1020.54
2018-12-05T00:23:09.314Z,1020.55
2018-12-05T00:24:09.289Z,1020.53
2018-12-05T00:25:09.260Z,1020.50
2018-12-05T00:26:09.237Z,1020.51
2018-12-05T00:27:09.214Z,1020.46
2018-12-05T00:28:09.197Z,1020.45
2018-12-05T00:29:09.163Z,1020.49
2018-12-05T00:30:09.140Z,1020.45
2018-12-05T00:31:09.114Z,1020.44
2018-12-05T00:32:09.088Z,1020.45
2018-12-05T00:33:09.066Z,1020.43
2018-12-05T00:34:09.040Z,1020.43
2018-12-05T00:35:09.025Z,1020.43
2018-12-05T00:36:08.989Z,1020.46
2018-12-05T00:37:08.973Z,1020.44
2018-12-05T00:38:08.939Z,1020.42
2018-12-05T00:39:08.912Z,1020.43
2018-12-05T00:40:08.894Z,1020.43
2018-12-05T00:41:08.862Z,1020.42
2018-12-05T00:42:08.841Z,1020.38
2018-12-05T00:43:08.826Z,1020.38
2018-12-05T00:44:08.794Z,1020.35
2018-12-05T00:45:08.763Z,1020.34
2018-12-05T00:46:08.741Z,1020.28
2018-12-05T00:47:08.719Z,1020.26
2018-12-05T00:48:08.693Z,1020.25
2018-12-05T00:49:08.665Z,1020.21
2018-12-05T00:50:08.639Z,1020.29
2018-12-05T00:51:08.616Z,1020.29
2018-12-05T00:52:08.595Z,1020.37
2018-12-05T00:53:08.567Z,1020.35
2018-12-05T00:54:08.543Z,1020.36
2018-12-05T00:55:08.515Z,1020.34
2018-12-05T00:56:08.505Z,1020.33
2018-12-05T00:57:08.468Z,1020.36
2018-12-05T00:58:08.453Z,1020.33
2018-12-05T00:59:08.421Z,1020.36
2018-12-05T01:00:08.407Z,1020.34
2018-12-05T01:01:08.367Z,1020.38
2018-12-05T01:02:08.342Z,1020.40
2018-12-05T01:03:08.334Z,1020.37
2018-12-05T01:04:08.304Z,1020.39
2018-12-05T01:05:08.274Z,1020.43
2018-12-05T01:06:08.253Z,1020.42
2018-12-05T01:07:08.221Z,1020.49
2018-12-05T01:08:08.197Z,1020.52
2018-12-05T01:09:08.185Z,1020.56
2018-12-05T01:10:08.145Z,1020.56
2018-12-05T01:11:08.125Z,1020.58
2018-12-05T01:12:08.098Z,1020.51
2018-12-05T01:13:08.072Z,1020.54
2018-12-05T01:14:08.048Z,1020.56
2018-12-05T01:15:08.024Z,1020.55
2018-12-05T01:16:08.000Z,1020.52
2018-12-05T01:17:07.980Z,1020.47
2018-12-05T01:18:07.954Z,1020.48
2018-12-05T01:19:07.925Z,1020.45
2018-12-05T01:20:07.909Z,1020.46
2018-12-05T01:21:07.876Z,1020.48
2018-12-05T01:22:07.851Z,1020.46
2018-12-05T01:23:07.827Z,1020.41
2018-12-05T01:24:07.803Z,1020.38
2018-12-05T01:25:07.790Z,1020.39
2018-12-05T01:26:07.751Z,1020.36
2018-12-05T01:27:07.730Z,1020.38
2018-12-05T01:28:07.705Z,1020.40
2018-12-05T01:29:07.678Z,1020.39
2018-12-05T01:30:07.651Z,1020.40
2018-12-05T01:31:07.632Z,1020.44
2018-12-05T01:32:07.603Z,1020.42
2018-12-05T01:33:07.595Z,1020.48
2018-12-05T01:34:07.557Z,1020.48
2018-12-05T01:35:07.530Z,1020.49
2018-12-05T01:36:07.506Z,1020.49
2018-12-05T01:37:07.479Z,1020.47
2018-12-05T01:38:07.453Z,1020.42
2018-12-05T01:39:07.430Z,1020.39
2018-12-05T01:40:07.408Z,1020.42
2018-12-05T01:41:07.388Z,1020.40
2018-12-05T01:42:07.356Z,1020.35
2018-12-05T01:43:07.340Z,1020.36
2018-12-05T01:44:07.307Z,1020.38
2018-12-05T01:45:07.281Z,1020.34
2018-12-05T01:46:07.259Z,1020.37
2018-12-05T01:47:07.232Z,1020.36
2018-12-05T01:48:07.206Z,1020.33
2018-12-05T01:49:07.181Z,1020.38
2018-12-05T01:50:07.156Z,1020.39
2018-12-05T01:51:07.132Z,1020.41
2018-12-05T01:52:07.109Z,1020.41
2018-12-05T01:53:07.081Z,1020.44
2018-12-05T01:54:07.059Z,1020.43
2018-12-05T01:55:07.033Z,1020.47
2018-12-05T01:56:07.010Z,1020.44
2018-12-05T01:57:06.993Z,1020.41
2018-12-05T01:58:06.958Z,1020.43
2018-12-05T01:59:06.934Z,1020.41
2018-12-05T02:00:06.912Z,1020.37
2018-12-05T02:01:06.882Z,1020.37
2018-12-05T02:02:06.861Z,1020.36
2018-12-05T02:03:06.835Z,1020.37
2018-12-05T02:04:06.814Z,1020.34
2018-12-05T02:05:06.792Z,1020.31
2018-12-05T02:06:06.765Z,1020.33
2018-12-05T02:07:06.740Z,1020.29
2018-12-05T02:08:06.720Z,1020.28
2018-12-05T02:09:06.693Z,1020.29
2018-12-05T02:10:06.661Z,1020.31
2018-12-05T02:11:06.634Z,1020.32
2018-12-05T02:12:06.612Z,1020.33
2018-12-05T02:13:06.586Z,1020.32
2018-12-05T02:14:06.562Z,1020.33
2018-12-05T02:15:06.537Z,1020.33
2018-12-05T02:16:06.513Z,1020.36
2018-12-05T02:17:06.487Z,1020.36
2018-12-05T02:18:06.461Z,1020.41
2018-12-05T02:19:06.447Z,1020.38
2018-12-05T02:20:06.414Z,1020.41
2018-12-05T02:21:06.387Z,1020.42
2018-12-05T02:22:06.363Z,1020.39
2018-12-05T02:23:06.338Z,1020.36
2018-12-05T02:24:06.314Z,1020.39
2018-12-05T02:25:06.287Z,1020.37
2018-12-05T02:26:06.262Z,1020.33
2018-12-05T02:27:06.237Z,1020.37
2018-12-05T02:28:06.213Z,1020.38
2018-12-05T02:29:06.190Z,1020.44
2018-12-05T02:30:06.167Z,1020.43
2018-12-05T02:31:06.141Z,1020.45
2018-12-05T02:32:06.115Z,1020.48
2018-12-05T02:33:06.090Z,1020.50
2018-12-05T02:34:06.064Z,1020.50
2018-12-05T02:35:06.042Z,1020.50
2018-12-05T02:36:06.017Z,1020.49
2018-12-05T02:37:06.001Z,1020.49
2018-12-05T02:38:05.966Z,1020.48
2018-12-05T02:39:05.940Z,1020.45
2018-12-05T02:40:05.916Z,1020.45
2018-12-05T02:41:05.891Z,1020.44
2018-12-05T02:42:05.868Z,1020.43
2018-12-05T02:43:05.843Z,1020.41
2018-12-05T02:44:05.822Z,1020.41
2018-12-05T02:45:05.790Z,1020.39
2018-12-05T02:46:05.772Z,1020.38
2018-12-05T02:47:05.743Z,1020.36
2018-12-05T02:48:05.721Z,1020.35
2018-12-05T02:49:05.692Z,1020.35
2018-12-05T02:50:05.669Z,1020.36
2018-12-05T02:51:05.643Z,1020.37
2018-12-05T02:52:05.627Z,1020.36
2018-12-05T02:53:05.593Z,1020.30
2018-12-05T02:54:05.637Z,1020.30
2018-12-05T02:55:05.544Z,1020.31
2018-12-05T02:56:05.521Z,1020.27
2018-12-05T02:57:05.503Z,1020.30
2018-12-05T02:58:05.468Z,1020.27
2018-12-05T02:59:05.448Z,1020.31
2018-12-05T03:00:05.418Z,1020.32
2018-12-05T03:01:05.391Z,1020.34
2018-12-05T03:02:05.368Z,1020.39
2018-12-05T03:03:05.343Z,1020.39
2018-12-05T03:04:05.319Z,1020.36
2018-12-05T03:05:05.291Z,1020.33
2018-12-05T03:06:05.270Z,1020.32
2018-12-05T03:07:05.243Z,1020.32
2018-12-05T03:08:05.220Z,1020.33
2018-12-05T03:09:05.195Z,1020.34
2018-12-05T03:10:05.174Z,1020.32
2018-12-05T03:11:05.150Z,1020.28
2018-12-05T03:12:05.121Z,1020.31
2018-12-05T03:13:05.094Z,1020.27
2018-12-05T03:14:05.072Z,1020.22
2018-12-05T03:15:05.045Z,1020.27
2018-12-05T03:16:05.022Z,1020.23
2018-12-05T03:17:05.000Z,1020.21
2018-12-05T03:18:04.970Z,1020.17
2018-12-05T03:19:04.952Z,1020.15
2018-12-05T03:20:05.438Z,1020.16
2018-12-05T03:21:04.895Z,1020.14
2018-12-05T03:22:04.875Z,1020.13
2018-12-05T03:23:04.845Z,1020.11
2018-12-05T03:24:04.828Z,1020.08
2018-12-05T03:25:04.793Z,1020.14
2018-12-05T03:26:04.769Z,1020.15
2018-12-05T03:27:04.746Z,1020.19
2018-12-05T03:28:04.720Z,1020.18
2018-12-05T03:29:06.736Z,1020.18
2018-12-05T03:30:04.670Z,1020.20
2018-12-05T03:31:04.650Z,1020.20
2018-12-05T03:32:04.641Z,1020.25
2018-12-05T03:33:04.609Z,1020.21
2018-12-05T03:34:04.571Z,1020.21
2018-12-05T03:35:04.546Z,1020.21
2018-12-05T03:36:04.520Z,1020.23
2018-12-05T03:37:04.496Z,1020.20
2018-12-05T03:38:04.470Z,1020.21
2018-12-05T03:39:04.449Z,1020.25
2018-12-05T03:40:04.422Z,1020.23
2018-12-05T03:41:04.397Z,1020.28
2018-12-05T03:42:04.371Z,1020.28
2018-12-05T03:43:04.346Z,1020.27
2018-12-05T03:44:04.323Z,1020.32
2018-12-05T03:45:04.297Z,1020.30
2018-12-05T03:46:04.269Z,1020.29
2018-12-05T03:47:04.246Z,1020.29
2018-12-05T03:48:04.224Z,1020.29
2018-12-05T03:49:04.195Z,1020.34
2018-12-05T03:50:04.171Z,1020.30
2018-12-05T03:51:04.152Z,1020.27
2018-12-05T03:52:04.124Z,1020.26
2018-12-05T03:53:04.099Z,1020.25
2018-12-05T03:54:04.073Z,1020.20
2018-12-05T03:55:04.046Z,1020.22
2018-12-05T03:56:04.019Z,1020.22
2018-12-05T03:57:03.993Z,1020.17
2018-12-05T03:58:03.974Z,1020.22
2018-12-05T03:59:03.952Z,1020.19
2018-12-05T04:00:03.920Z,1020.18
2018-12-05T04:01:03.903Z,1020.24
2018-12-05T04:02:03.869Z,1020.24
2018-12-05T04:03:03.848Z,1020.18
2018-12-05T04:04:03.822Z,1020.21
2018-12-05T04:05:03.798Z,1020.15
2018-12-05T04:06:03.770Z,1020.13
2018-12-05T04:07:03.745Z,1020.10
2018-12-05T04:08:03.722Z,1020.11
2018-12-05T04:09:03.694Z,1020.11
2018-12-05T04:10:03.670Z,1020.10
2018-12-05T04:11:03.645Z,1020.11
2018-12-05T04:12:03.620Z,1020.10
2018-12-05T04:13:03.597Z,1020.06
2018-12-05T04:14:03.570Z,1020.09
2018-12-05T04:15:03.546Z,1020.08
2018-12-05T04:16:03.521Z,1020.10
2018-12-05T04:17:03.497Z,1020.11
2018-12-05T04:18:03.480Z,1020.10
2018-12-05T04:19:03.448Z,1020.14
2018-12-05T04:20:03.424Z,1020.08
2018-12-05T04:21:03.395Z,1020.09
2018-12-05T04:22:03.377Z,1020.11
2018-12-05T04:23:03.347Z,1020.14
2018-12-05T04:24:03.321Z,1020.20
2018-12-05T04:25:03.304Z,1020.16
2018-12-05T04:26:03.270Z,1020.16
2018-12-05T04:27:03.244Z,1020.18
2018-12-05T04:28:03.222Z,1020.15
2018-12-05T04:29:03.196Z,1020.14
2018-12-05T04:30:03.171Z,1020.13
2018-12-05T04:31:03.145Z,1020.16
2018-12-05T04:32:03.120Z,1020.16
2018-12-05T04:33:03.099Z,1020.16
2018-12-05T04:34:03.077Z,1020.13
2018-12-05T04:35:03.043Z,1020.16
2018-12-05T04:36:03.020Z,1020.14
2018-12-05T04:37:02.993Z,1020.12
2018-12-05T04:38:02.970Z,1020.13
2018-12-05T04:39:02.943Z,1020.13
2018-12-05T04:40:02.923Z,1020.14
2018-12-05T04:41:02.904Z,1020.15
2018-12-05T04:42:02.868Z,1020.14
2018-12-05T04:43:02.900Z,1020.18
2018-12-05T04:44:02.822Z,1020.19
2018-12-05T04:45:02.797Z,1020.17
2018-12-05T04:46:02.766Z,1020.22
2018-12-05T04:47:02.743Z,1020.23
2018-12-05T04:48:02.717Z,1020.21
2018-12-05T04:49:02.692Z,1020.22
2018-12-05T04:50:02.666Z,1020.18
2018-12-05T04:51:02.641Z,1020.16
2018-12-05T04:52:02.617Z,1020.12
2018-12-05T04:53:02.589Z,1020.07
2018-12-05T04:54:02.565Z,1020.09
2018-12-05T04:55:02.545Z,1020.03
2018-12-05T04:56:02.522Z,1020.08
2018-12-05T04:57:02.494Z,1020.08
2018-12-05T04:58:02.464Z,1020.10
2018-12-05T04:59:02.441Z,1020.09
2018-12-05T05:00:02.414Z,1020.05
2018-12-05T05:01:02.388Z,1020.04
2018-12-05T05:02:02.363Z,1020.04
2018-12-05T05:03:02.344Z,1020.03
2018-12-05T05:04:02.320Z,1020.05
2018-12-05T05:05:02.288Z,1020.06
2018-12-05T05:06:02.272Z,1020.02
2018-12-05T05:07:02.238Z,1020.06
2018-12-05T05:08:02.211Z,1020.04
2018-12-05T05:09:02.190Z,1020.06
2018-12-05T05:10:02.167Z,1020.05
2018-12-05T05:11:02.138Z,1020.03
2018-12-05T05:12:02.130Z,1020.01
2018-12-05T05:13:02.096Z,1019.99
2018-12-05T05:14:02.060Z,1019.98
2018-12-05T05:15:02.045Z,1019.98
2018-12-05T05:16:02.011Z,1019.99
2018-12-05T05:17:01.985Z,1019.99
2018-12-05T05:18:01.959Z,1019.98
2018-12-05T05:19:01.935Z,1019.96
2018-12-05T05:20:01.912Z,1019.94
2018-12-05T05:21:01.883Z,1019.97
2018-12-05T05:22:01.860Z,1020.00
2018-12-05T05:23:01.835Z,1019.98
2018-12-05T05:24:01.810Z,1020.02
2018-12-05T05:25:01.784Z,1019.98
2018-12-05T05:26:01.758Z,1019.95
2018-12-05T05:27:01.732Z,1019.91
2018-12-05T05:28:01.710Z,1019.91
2018-12-05T05:29:01.689Z,1019.92
2018-12-05T05:30:01.666Z,1019.86
2018-12-05T05:31:01.633Z,1019.87
2018-12-05T05:32:01.613Z,1019.84
2018-12-05T05:33:01.590Z,1019.88
2018-12-05T05:34:01.567Z,1019.86
2018-12-05T05:35:01.535Z,1019.85
2018-12-05T05:36:01.520Z,1019.86
2018-12-05T05:37:01.483Z,1019.84
2018-12-05T05:38:01.456Z,1019.84
2018-12-05T05:39:01.431Z,1019.83
2018-12-05T05:40:01.413Z,1019.84
2018-12-05T05:41:01.389Z,1019.81
2018-12-05T05:42:01.364Z,1019.84
2018-12-05T05:43:01.331Z,1019.82
2018-12-05T05:44:01.309Z,1019.84
2018-12-05T05:45:01.281Z,1019.85
2018-12-05T05:46:01.254Z,1019.85
2018-12-05T05:47:01.233Z,1019.88
2018-12-05T05:48:01.206Z,1019.89
2018-12-05T05:49:01.179Z,1019.93
2018-12-05T05:50:01.154Z,1019.91
2018-12-05T05:51:01.134Z,1019.92
2018-12-05T05:52:01.103Z,1019.93
2018-12-05T05:53:01.079Z,1019.89
2018-12-05T05:54:01.065Z,1019.88
2018-12-05T05:55:01.029Z,1019.87
2018-12-05T05:56:01.005Z,1019.90
2018-12-05T05:57:00.979Z,1019.93
2018-12-05T05:58:00.966Z,1019.96
2018-12-05T05:59:00.929Z,1019.96
2018-12-05T06:00:00.906Z,1019.98
2018-12-05T06:01:00.958Z,1019.99
2018-12-05T06:02:00.853Z,1020.02
2018-12-05T06:03:00.829Z,1020.03
2018-12-05T06:04:00.809Z,1020.08
2018-12-05T06:05:00.780Z,1020.12
2018-12-05T06:06:00.756Z,1020.11
2018-12-05T06:07:00.727Z,1020.12
2018-12-05T06:08:00.703Z,1020.11
2018-12-05T06:09:00.676Z,1020.10
2018-12-05T06:10:00.653Z,1020.07
2018-12-05T06:11:00.624Z,1020.10
2018-12-05T06:12:00.604Z,1020.08
2018-12-05T06:13:00.573Z,1020.10
2018-12-05T06:14:00.548Z,1020.08
2018-12-05T06:15:00.524Z,1020.02
2018-12-05T06:16:00.507Z,1020.03
2018-12-05T06:17:00.474Z,1020.02
2018-12-05T06:18:00.449Z,1019.96
2018-12-05T06:19:00.428Z,1019.99
2018-12-05T06:20:00.400Z,1019.94
2018-12-05T06:21:00.386Z,1019.96
2018-12-05T06:22:00.355Z,1019.93
2018-12-05T06:23:00.331Z,1020.00
2018-12-05T06:24:00.297Z,1020.01
2018-12-05T06:25:00.272Z,1020.02
2018-12-05T06:26:00.252Z,1020.04
2018-12-05T06:27:00.220Z,1020.03
2018-12-05T06:28:00.194Z,1020.03
2018-12-05T06:29:00.169Z,1020.02
2018-12-05T06:30:00.145Z,1020.03
2018-12-05T06:31:00.123Z,1020.03
2018-12-05T06:32:00.104Z,1020.01
2018-12-05T06:33:00.068Z,1019.97
2018-12-05T06:34:00.044Z,1019.98
2018-12-05T06:35:00.019Z,1020.00
2018-12-05T06:36:00.000Z,1020.01
2018-12-05T06:36:59.967Z,1020.00
2018-12-05T06:37:59.945Z,1020.06
2018-12-05T06:38:59.916Z,1020.05
2018-12-05T06:39:59.898Z,1020.06
2018-12-05T06:40:59.864Z,1020.01
2018-12-05T06:41:59.921Z,1020.04
2018-12-05T06:42:59.832Z,1020.06
2018-12-05T06:43:59.801Z,1020.04
2018-12-05T06:44:59.765Z,1020.04
2018-12-05T06:45:59.742Z,1019.99
2018-12-05T06:46:59.714Z,1020.02
2018-12-05T06:47:59.690Z,1019.98
2018-12-05T06:48:59.665Z,1020.04
2018-12-05T06:49:59.650Z,1020.02
2018-12-05T06:50:59.629Z,1020.06
2018-12-05T06:51:59.589Z,1020.07
2018-12-05T06:52:59.562Z,1020.15
2018-12-05T06:53:59.538Z,1020.16
2018-12-05T06:54:59.512Z,1020.14
2018-12-05T06:55:59.490Z,1020.11
2018-12-05T06:56:59.463Z,1020.12
2018-12-05T06:57:59.440Z,1020.10
2018-12-05T06:58:59.410Z,1020.11
2018-12-05T06:59:59.388Z,1020.08
2018-12-05T07:00:59.362Z,1020.07
2018-12-05T07:01:59.337Z,1020.10
2018-12-05T07:02:59.317Z,1020.10
2018-12-05T07:03:59.286Z,1020.11
2018-12-05T07:04:59.257Z,1020.09
2018-12-05T07:05:59.234Z,1020.07
2018-12-05T07:06:59.207Z,1020.06
2018-12-05T07:07:59.186Z,1020.08
2018-12-05T07:08:59.174Z,1020.05
2018-12-05T07:09:59.140Z,1020.06
2018-12-05T07:10:59.105Z,1020.04
2018-12-05T07:11:59.079Z,1020.05
2018-12-05T07:12:59.055Z,1020.03
2018-12-05T07:13:59.032Z,1020.06
2018-12-05T07:14:59.008Z,1020.11
2018-12-05T07:15:58.982Z,1020.11
2018-12-05T07:16:58.953Z,1020.08
2018-12-05T07:17:58.928Z,1020.02
2018-12-05T07:18:58.912Z,1019.95
2018-12-05T07:19:58.884Z,1019.98
2018-12-05T07:20:58.863Z,1019.97
2018-12-05T07:21:58.825Z,1019.96
2018-12-05T07:22:58.804Z,1019.98
2018-12-05T07:23:58.782Z,1019.98
2018-12-05T07:24:58.798Z,1019.96
2018-12-05T07:25:58.726Z,1019.99
2018-12-05T07:26:58.698Z,1020.02
2018-12-05T07:27:58.674Z,1020.02
2018-12-05T07:28:58.648Z,1020.00
2018-12-05T07:29:58.624Z,1019.99
2018-12-05T07:30:58.599Z,1019.99
2018-12-05T07:31:58.579Z,1019.97
2018-12-05T07:32:58.547Z,1019.99
2018-12-05T07:33:58.531Z,1019.97
2018-12-05T07:34:58.499Z,1020.02
2018-12-05T07:35:58.472Z,1020.00
2018-12-05T07:36:58.451Z,1020.01
2018-12-05T07:37:58.421Z,1020.05
2018-12-05T07:38:58.402Z,1020.02
2018-12-05T07:39:58.371Z,1020.04
2018-12-05T07:40:58.344Z,1020.03
2018-12-05T07:41:58.320Z,1020.04
2018-12-05T07:42:58.298Z,1020.04
2018-12-05T07:43:58.282Z,1020.05
2018-12-05T07:44:58.244Z,1020.04
2018-12-05T07:45:58.220Z,1020.02
2018-12-05T07:46:58.193Z,1020.00
2018-12-05T07:47:58.167Z,1020.00
2018-12-05T07:48:58.146Z,1019.99
2018-12-05T07:49:58.119Z,1019.98
2018-12-05T07:50:58.091Z,1019.97
2018-12-05T07:51:58.066Z,1020.00
2018-12-05T07:52:58.044Z,1020.00
2018-12-05T07:53:58.024Z,1019.94
2018-12-05T07:54:57.990Z,1019.91
2018-12-05T07:55:57.965Z,1019.90
2018-12-05T07:56:57.941Z,1019.92
2018-12-05T07:57:57.917Z,1019.91
2018-12-05T07:58:57.890Z,1019.90
2018-12-05T07:59:57.864Z,1019.90
2018-12-05T08:00:57.837Z,1019.87
2018-12-05T08:01:57.825Z,1019.89
2018-12-05T08:02:57.796Z,1019.90
2018-12-05T08:03:57.764Z,1019.92
2018-12-05T08:04:57.737Z,1019.91
2018-12-05T08:05:57.714Z,1019.96
2018-12-05T08:06:57.687Z,1019.94
2018-12-05T08:07:57.671Z,1019.90
2018-12-05T08:08:57.640Z,1019.95
2018-12-05T08:09:57.690Z,1019.94
2018-12-05T08:10:57.586Z,1019.93
2018-12-05T08:11:57.561Z,1019.92
2018-12-05T08:12:57.535Z,1019.91
2018-12-05T08:13:57.509Z,1019.93
2018-12-05T08:14:57.486Z,1019.93
2018-12-05T08:15:57.458Z,1019.90
2018-12-05T08:16:57.435Z,1019.90
2018-12-05T08:17:57.412Z,1019.91
2018-12-05T08:18:57.392Z,1019.87
2018-12-05T08:19:57.358Z,1019.85
2018-12-05T08:20:57.332Z,1019.85
2018-12-05T08:21:57.306Z,1019.82
2018-12-05T08:22:57.282Z,1019.82
2018-12-05T08:23:57.266Z,1019.78
2018-12-05T08:24:57.234Z,1019.81
2018-12-05T08:25:57.213Z,1019.76
2018-12-05T08:26:57.182Z,1019.76
2018-12-05T08:27:57.156Z,1019.72
2018-12-05T08:28:57.130Z,1019.71
2018-12-05T08:29:57.106Z,1019.70
2018-12-05T08:30:57.082Z,1019.71
2018-12-05T08:31:57.056Z,1019.69
2018-12-05T08:32:57.031Z,1019.68
2018-12-05T08:33:57.011Z,1019.69
2018-12-05T08:34:56.981Z,1019.69
2018-12-05T08:35:56.955Z,1019.67
2018-12-05T08:36:56.930Z,1019.69
2018-12-05T08:37:56.904Z,1019.68
2018-12-05T08:38:56.883Z,1019.65
2018-12-05T08:39:56.854Z,1019.62
2018-12-05T08:40:56.830Z,1019.64
2018-12-05T08:41:56.806Z,1019.62
2018-12-05T08:42:56.778Z,1019.63
2018-12-05T08:43:56.755Z,1019.61
2018-12-05T08:44:56.749Z,1019.55
2018-12-05T08:45:56.704Z,1019.59
2018-12-05T08:46:56.680Z,1019.59
2018-12-05T08:47:56.654Z,1019.61
2018-12-05T08:48:56.629Z,1019.61
2018-12-05T08:49:56.603Z,1019.59
2018-12-05T08:50:56.578Z,1019.54
2018-12-05T08:51:56.553Z,1019.52
2018-12-05T08:52:56.529Z,1019.52
2018-12-05T08:53:56.501Z,1019.53
2018-12-05T08:54:56.478Z,1019.51
2018-12-05T08:55:56.454Z,1019.51
2018-12-05T08:56:56.433Z,1019.54
2018-12-05T08:57:56.403Z,1019.56
2018-12-05T08:58:56.378Z,1019.55
2018-12-05T08:59:56.354Z,1019.54
2018-12-05T09:00:56.330Z,1019.49
2018-12-05T09:01:56.301Z,1019.48
2018-12-05T09:02:56.280Z,1019.45
2018-12-05T09:03:56.253Z,1019.44
2018-12-05T09:04:56.228Z,1019.45
2018-12-05T09:05:56.207Z,1019.39
2018-12-05T09:06:56.180Z,1019.36
2018-12-05T09:07:56.160Z,1019.32
2018-12-05T09:08:56.132Z,1019.31
2018-12-05T09:09:56.107Z,1019.28
2018-12-05T09:10:56.077Z,1019.28
2018-12-05T09:11:56.057Z,1019.29
2018-12-05T09:12:56.031Z,1019.33
2018-12-05T09:13:56.014Z,1019.39
2018-12-05T09:14:55.987Z,1019.37
2018-12-05T09:15:55.957Z,1019.40
2018-12-05T09:16:55.940Z,1019.34
2018-12-05T09:17:55.916Z,1019.33
2018-12-05T09:18:55.881Z,1019.31
2018-12-05T09:19:55.857Z,1019.28
2018-12-05T09:20:55.830Z,1019.30
2018-12-05T09:21:55.805Z,1019.27
2018-12-05T09:22:55.782Z,1019.28
2018-12-05T09:23:55.758Z,1019.29
2018-12-05T09:24:55.731Z,1019.28
2018-12-05T09:25:55.708Z,1019.26
2018-12-05T09:26:55.687Z,1019.21
2018-12-05T09:27:55.657Z,1019.23
2018-12-05T09:28:57.361Z,1019.25
2018-12-05T09:29:55.612Z,1019.24
2018-12-05T09:30:55.585Z,1019.32
2018-12-05T09:31:55.558Z,1019.26
2018-12-05T09:32:56.729Z,1019.30
2018-12-05T09:33:55.510Z,1019.28
2018-12-05T09:34:55.485Z,1019.27
2018-12-05T09:35:55.469Z,1019.25
2018-12-05T09:36:55.433Z,1019.24
2018-12-05T09:37:55.417Z,1019.22
2018-12-05T09:38:55.386Z,1019.15
2018-12-05T09:39:55.363Z,1019.14
2018-12-05T09:40:55.333Z,1019.09
2018-12-05T09:41:55.320Z,1019.13
2018-12-05T09:42:55.287Z,1019.08
2018-12-05T09:43:55.265Z,1019.05
2018-12-05T09:44:55.236Z,1019.02
2018-12-05T09:45:55.215Z,1019.00
2018-12-05T09:46:55.185Z,1019.00
2018-12-05T09:47:55.179Z,1018.99
2018-12-05T09:48:55.137Z,1018.95
2018-12-05T09:49:55.121Z,1018.95
2018-12-05T09:50:55.088Z,1018.98
2018-12-05T09:51:55.062Z,1018.97
2018-12-05T09:52:55.043Z,1018.99
2018-12-05T09:53:55.013Z,1018.99
2018-12-05T09:54:54.994Z,1018.96
2018-12-05T09:55:54.964Z,1018.93
2018-12-05T09:56:54.940Z,1018.96
2018-12-05T09:57:54.914Z,1018.96
2018-12-05T09:58:54.898Z,1018.99
2018-12-05T09:59:54.866Z,1018.96
2018-12-05T10:00:54.840Z,1018.95
2018-12-05T10:01:54.816Z,1018.94
2018-12-05T10:02:54.795Z,1018.94
2018-12-05T10:03:54.769Z,1018.90
2018-12-05T10:04:54.743Z,1018.87
2018-12-05T10:05:54.717Z,1018.85
2018-12-05T10:06:54.703Z,1018.82
2018-12-05T10:07:54.670Z,1018.79
2018-12-05T10:08:54.644Z,1018.79
2018-12-05T10:09:54.624Z,1018.76
2018-12-05T10:10:54.594Z,1018.78
2018-12-05T10:11:54.575Z,1018.79
2018-12-05T10:12:54.544Z,1018.77
2018-12-05T10:13:54.523Z,1018.73
2018-12-05T10:14:54.507Z,1018.71
2018-12-05T10:15:54.471Z,1018.72
2018-12-05T10:16:54.445Z,1018.70
2018-12-05T10:17:54.426Z,1018.66
2018-12-05T10:18:54.403Z,1018.64
2018-12-05T10:19:54.379Z,1018.64
2018-12-05T10:20:56.070Z,1018.64
2018-12-05T10:21:54.324Z,1018.62
2018-12-05T10:22:54.312Z,1018.59
2018-12-05T10:23:54.284Z,1018.59
2018-12-05T10:24:54.258Z,1018.64
2018-12-05T10:25:54.225Z,1018.66
2018-12-05T10:26:54.205Z,1018.62
2018-12-05T10:27:54.186Z,1018.64
2018-12-05T10:28:54.159Z,1018.62
2018-12-05T10:29:54.127Z,1018.61
2018-12-05T10:30:54.103Z,1018.59
2018-12-05T10:31:54.086Z,1018.59
2018-12-05T10:32:54.056Z,1018.58
2018-12-05T10:33:54.027Z,1018.57
2018-12-05T10:34:54.005Z,1018.50
2018-12-05T10:35:53.980Z,1018.55
2018-12-05T10:36:53.955Z,1018.54
2018-12-05T10:37:54.571Z,1018.52
2018-12-05T10:38:53.905Z,1018.48
2018-12-05T10:39:53.888Z,1018.47
2018-12-05T10:40:53.857Z,1018.40
2018-12-05T10:41:53.833Z,1018.40
2018-12-05T10:42:53.810Z,1018.39
2018-12-05T10:43:53.784Z,1018.34
2018-12-05T10:44:53.758Z,1018.31
2018-12-05T10:45:53.740Z,1018.30
2018-12-05T10:46:53.712Z,1018.29
2018-12-05T10:47:53.687Z,1018.25
2018-12-05T10:48:53.661Z,1018.23
2018-12-05T10:49:53.638Z,1018.18
2018-12-05T10:50:53.612Z,1018.20
2018-12-05T10:51:53.589Z,1018.18
2018-12-05T10:52:53.562Z,1018.16
2018-12-05T10:53:53.539Z,1018.12
2018-12-05T10:54:53.513Z,1018.10
2018-12-05T10:55:53.500Z,1018.10
2018-12-05T10:56:53.468Z,1018.14
2018-12-05T10:57:53.439Z,1018.07
2018-12-05T10:58:53.424Z,1018.07
2018-12-05T10:59:53.390Z,1018.07
2018-12-05T11:00:53.366Z,1018.03
2018-12-05T11:01:53.345Z,1017.97
2018-12-05T11:02:53.322Z,1017.99
2018-12-05T11:03:53.293Z,1017.94
2018-12-05T11:04:53.271Z,1017.91
2018-12-05T11:05:53.244Z,1017.94
2018-12-05T11:06:53.228Z,1017.92
2018-12-05T11:07:53.197Z,1017.93
2018-12-05T11:08:53.181Z,1017.91
2018-12-05T11:09:53.155Z,1017.91
2018-12-05T11:10:53.124Z,1017.92
2018-12-05T11:11:53.101Z,1017.91
2018-12-05T11:12:53.074Z,1017.91
2018-12-05T11:13:53.050Z,1017.90
2018-12-05T11:14:53.025Z,1017.89
2018-12-05T11:15:53.007Z,1017.85
2018-12-05T11:16:52.976Z,1017.85
2018-12-05T11:17:52.951Z,1017.82
2018-12-05T11:18:52.927Z,1017.86
2018-12-05T11:19:52.905Z,1017.79
2018-12-05T11:20:52.881Z,1017.77
2018-12-05T11:21:52.857Z,1017.76
2018-12-05T11:22:52.835Z,1017.69
2018-12-05T11:23:52.813Z,1017.71
2018-12-05T11:24:52.781Z,1017.67
2018-12-05T11:25:52.759Z,1017.69
2018-12-05T11:26:52.736Z,1017.70
2018-12-05T11:27:52.712Z,1017.64
2018-12-05T11:28:52.683Z,1017.63
2018-12-05T11:29:52.665Z,1017.65
2018-12-05T11:30:52.639Z,1017.57
2018-12-05T11:31:52.615Z,1017.56
2018-12-05T11:32:52.599Z,1017.57
2018-12-05T11:33:52.567Z,1017.53
2018-12-05T11:34:52.538Z,1017.56
2018-12-05T11:35:52.517Z,1017.59
2018-12-05T11:36:52.490Z,1017.61
2018-12-05T11:37:52.467Z,1017.55
2018-12-05T11:38:52.441Z,1017.51
2018-12-05T11:39:52.421Z,1017.50
2018-12-05T11:40:52.393Z,1017.52
2018-12-05T11:41:52.376Z,1017.48
2018-12-05T11:42:52.347Z,1017.50
2018-12-05T11:43:52.320Z,1017.44
2018-12-05T11:44:52.332Z,1017.43
2018-12-05T11:45:52.272Z,1017.41
2018-12-05T11:46:52.249Z,1017.42
2018-12-05T11:47:52.225Z,1017.36
2018-12-05T11:48:52.199Z,1017.36
2018-12-05T11:49:52.185Z,1017.35
2018-12-05T11:50:52.155Z,1017.32
2018-12-05T11:51:52.911Z,1017.31
2018-12-05T11:52:52.103Z,1017.32
2018-12-05T11:53:52.078Z,1017.29
2018-12-05T11:54:52.055Z,1017.27
2018-12-05T11:55:52.032Z,1017.25
2018-12-05T11:56:52.007Z,1017.24
2018-12-05T11:57:52.730Z,1017.22
2018-12-05T11:58:51.958Z,1017.17
2018-12-05T11:59:51.935Z,1017.18
2018-12-05T12:00:51.910Z,1017.19
2018-12-05T12:01:51.886Z,1017.16
2018-12-05T12:02:51.872Z,1017.15
2018-12-05T12:03:51.838Z,1017.11
2018-12-05T12:04:51.812Z,1017.10